Time,TemperatureF,DewpointF,PressureIn,WindDirection,WindDirectionDegrees,WindSpeedMPH,WindSpeedGustMPH,Humidity,HourlyPrecipIn,Conditions,Clouds,dailyrainin,SolarRadiationWatts/m^2,SoftwareType,DateUTC
2013-01-24 00:04:00,-36.1,-45.7,30.79,WNW,296,0.0,1.0,57,0.00,,SKC,0.00,0.00,VWS V14.00,2013-01-24 06:04:00,
2013-01-24 00:09:00,-36.1,-46.0,30.79,WNW,296,0.0,0.0,56,0.00,,SKC,0.00,0.00,VWS V14.00,2013-01-24 06:09:00,
2013-01-24 00:14:00,-36.6,-46.5,30.79,WNW,296,0.0,0.0,56,0.00,,SKC,0.00,0.00,VWS V14.00,2013-01-24 06:14:00,
2013-01-24 00:19:00,-36.6,-46.5,30.79,WNW,296,0.0,0.0,56,0.00,,SKC,0.00,0.00,VWS V14.00,2013-01-24 06:19:00,
2013-01-24 00:24:00,-37.0,-46.9,30.79,WNW,296,0.0,0.0,56,0.00,,SKC,0.00,0.00,VWS V14.00,2013-01-24 06:24:00,
2013-01-24 00:29:00,-37.0,-46.9,30.79,WNW,296,0.0,0.0,56,0.00,,SKC,0.00,0.00,VWS V14.00,2013-01-24 06:29:00,
2013-01-24 00:34:00,-37.4,-47.6,30.80,WNW,296,0.0,0.0,55,0.00,,SKC,0.00,0.00,VWS V14.00,2013-01-24 06:34:00,
2013-01-24 00:39:00,-37.8,-47.9,30.80,WNW,296,0.0,0.0,55,0.00,,SKC,0.00,0.00,VWS V14.00,2013-01-24 06:39:00,
2013-01-24 00:44:00,-38.3,-48.4,30.80,WNW,296,1.0,2.0,55,0.00,,SKC,0.00,0.00,VWS V14.00,2013-01-24 06:44:00,
2013-01-24 00:49:00,-38.3,-48.4,30.80,WNW,296,0.0,2.0,55,0.00,,SKC,0.00,0.00,VWS V14.00,2013-01-24 06:49:00,
2013-01-24 00:54:00,-37.8,-47.9,30.80,WNW,296,0.0,1.0,55,0.00,,SKC,0.00,0.00,VWS V14.00,2013-01-24 06:54:00,
2013-01-24 00:59:00,-37.8,-47.9,30.80,WNW,296,0.0,0.0,55,0.00,,SKC,0.00,0.00,VWS V14.00,2013-01-24 06:59:00,
2013-01-24 01:04:00,-37.8,-47.9,30.80,WNW,296,1.0,1.0,55,0.00,,SKC,0.00,0.00,VWS V14.00,2013-01-24 07:04:00,
2013-01-24 01:09:00,-37.8,-47.9,30.80,WNW,296,1.0,1.0,55,0.00,,SKC,0.00,0.00,VWS V14.00,2013-01-24 07:09:00,
2013-01-24 01:14:00,-38.3,-48.4,30.80,WNW,296,0.0,2.0,55,0.00,,SKC,0.00,0.00,VWS V14.00,2013-01-24 07:14:00,
2013-01-24 01:19:00,-38.3,-48.4,30.79,WNW,296,0.0,1.0,55,0.00,,SKC,0.00,0.00,VWS V14.00,2013-01-24 07:19:00,
2013-01-24 01:24:00,-38.3,-48.4,30.79,WNW,296,1.0,2.0,55,0.00,,SKC,0.00,0.00,VWS V14.00,2013-01-24 07:24:00,
2013-01-24 01:29:00,-38.3,-48.4,30.79,WNW,296,1.0,2.0,55,0.00,,SKC,0.00,0.00,VWS V14.00,2013-01-24 07:29:00,
2013-01-24 01:34:00,-38.3,-48.4,30.78,WNW,296,1.0,2.0,55,0.00,,SKC,0.00,0.00,VWS V14.00,2013-01-24 07:34:00,
2013-01-24 01:39:00,-38.3,-48.7,30.78,WNW,296,1.0,2.0,54,0.00,,SKC,0.00,0.00,VWS V14.00,2013-01-24 07:39:00,
2013-01-24 01:44:00,-38.7,-49.1,30.78,WNW,296,1.0,2.0,54,0.00,,SKC,0.00,0.00,VWS V14.00,2013-01-24 07:44:00,
2013-01-24 01:49:00,-39.2,-49.6,30.78,WNW,296,1.0,2.0,54,0.00,,SKC,0.00,0.00,VWS V14.00,2013-01-24 07:49:00,
2013-01-24 01:54:00,-39.2,-49.6,30.78,WNW,296,0.0,2.0,54,0.00,,SKC,0.00,0.00,VWS V14.00,2013-01-24 07:54:00,
2013-01-24 01:59:00,-38.7,-48.8,30.78,WNW,296,1.0,2.0,55,0.00,,SKC,0.00,0.00,VWS V14.00,2013-01-24 07:59:00,
2013-01-24 02:04:00,-38.7,-48.8,30.78,WNW,296,2.0,3.0,55,0.00,,SKC,0.00,0.00,VWS V14.00,2013-01-24 08:04:00,
2013-01-24 02:09:00,-38.7,-48.8,30.78,WNW,296,0.0,2.0,55,0.00,,SKC,0.00,0.00,VWS V14.00,2013-01-24 08:09:00,
2013-01-24 02:14:00,-38.3,-48.4,30.78,WNW,296,1.0,1.0,55,0.00,,SKC,0.00,0.00,VWS V14.00,2013-01-24 08:14:00,
2013-01-24 02:19:00,-38.3,-48.4,30.78,WNW,296,0.0,1.0,55,0.00,,SKC,0.00,0.00,VWS V14.00,2013-01-24 08:19:00,
2013-01-24 02:24:00,-37.8,-47.7,30.78,WNW,296,1.0,1.0,56,0.00,,SKC,0.00,0.00,VWS V14.00,2013-01-24 08:24:00,
2013-01-24 02:29:00,-37.8,-47.9,30.78,WNW,296,1.0,2.0,55,0.00,,SKC,0.00,0.00,VWS V14.00,2013-01-24 08:29:00,
2013-01-24 02:34:00,-38.3,-48.4,30.78,WNW,296,1.0,2.0,55,0.00,,SKC,0.00,0.00,VWS V14.00,2013-01-24 08:34:00,
2013-01-24 02:39:00,-38.3,-48.4,30.78,WNW,296,1.0,2.0,55,0.00,,SKC,0.00,0.00,VWS V14.00,2013-01-24 08:39:00,
2013-01-24 02:44:00,-37.8,-47.9,30.78,WNW,296,2.0,2.0,55,0.00,,SKC,0.00,0.00,VWS V14.00,2013-01-24 08:44:00,
2013-01-24 02:49:00,-37.8,-47.7,30.77,WNW,296,0.0,1.0,56,0.00,,SKC,0.00,0.00,VWS V14.00,2013-01-24 08:49:00,
2013-01-24 02:54:00,-37.8,-47.9,30.77,WNW,296,1.0,2.0,55,0.00,,SKC,0.00,0.00,VWS V14.00,2013-01-24 08:54:00,
2013-01-24 02:59:00,-37.8,-47.9,30.77,WNW,296,1.0,1.0,55,0.00,,SKC,0.00,0.00,VWS V14.00,2013-01-24 08:59:00,
2013-01-24 03:04:00,-37.8,-47.9,30.77,WNW,296,1.0,2.0,55,0.00,,SKC,0.00,0.00,VWS V14.00,2013-01-24 09:04:00,
2013-01-24 03:10:00,-37.8,-47.9,30.77,WNW,296,1.0,2.0,55,0.00,,SKC,0.00,0.00,VWS V14.00,2013-01-24 09:10:00,
2013-01-24 03:15:00,-37.4,-47.6,30.77,WNW,296,2.0,2.0,55,0.00,,SKC,0.00,0.00,VWS V14.00,2013-01-24 09:15:00,
2013-01-24 03:20:00,-37.4,-47.3,30.77,WNW,296,1.0,3.0,56,0.00,,SKC,0.00,0.00,VWS V14.00,2013-01-24 09:20:00,
2013-01-24 03:25:00,-37.4,-47.6,30.77,WNW,296,1.0,2.0,55,0.00,,SKC,0.00,0.00,VWS V14.00,2013-01-24 09:25:00,
2013-01-24 03:30:00,-37.4,-47.6,30.77,WNW,296,2.0,2.0,55,0.00,,SKC,0.00,0.00,VWS V14.00,2013-01-24 09:30:00,
2013-01-24 03:35:00,-37.4,-47.6,30.76,WNW,296,1.0,2.0,55,0.00,,SKC,0.00,0.00,VWS V14.00,2013-01-24 09:35:00,
2013-01-24 03:40:00,-37.4,-47.6,30.76,WNW,296,1.0,2.0,55,0.00,,SKC,0.00,0.00,VWS V14.00,2013-01-24 09:40:00,
2013-01-24 03:45:00,-37.0,-46.9,30.76,WNW,296,1.0,2.0,56,0.00,,SKC,0.00,0.00,VWS V14.00,2013-01-24 09:45:00,
2013-01-24 03:50:00,-37.0,-46.9,30.75,WNW,296,2.0,3.0,56,0.00,,SKC,0.00,0.00,VWS V14.00,2013-01-24 09:50:00,
2013-01-24 03:55:00,-37.0,-46.9,30.75,WNW,296,3.0,3.0,56,0.00,,SKC,0.00,0.00,VWS V14.00,2013-01-24 09:55:00,
2013-01-24 04:00:00,-36.6,-46.5,30.75,WNW,296,3.0,3.0,56,0.00,,SKC,0.00,0.00,VWS V14.00,2013-01-24 10:00:00,
2013-01-24 04:05:00,-36.6,-46.5,30.75,WNW,296,3.0,3.0,56,0.00,,SKC,0.00,0.00,VWS V14.00,2013-01-24 10:05:00,
2013-01-24 04:10:00,-36.1,-46.0,30.75,WNW,296,2.0,3.0,56,0.00,,SKC,0.00,0.00,VWS V14.00,2013-01-24 10:10:00,
2013-01-24 04:15:00,-35.7,-45.4,30.75,WNW,296,3.0,4.0,57,0.00,,SKC,0.00,0.00,VWS V14.00,2013-01-24 10:15:00,
2013-01-24 04:20:00,-34.8,-44.5,30.75,WNW,296,2.0,4.0,57,0.00,,SKC,0.00,0.00,VWS V14.00,2013-01-24 10:20:00,
2013-01-24 04:25:00,-34.4,-43.8,30.75,WNW,296,3.0,4.0,58,0.00,,SKC,0.00,0.00,VWS V14.00,2013-01-24 10:25:00,
2013-01-24 04:30:00,-34.0,-43.5,30.75,WNW,296,2.0,4.0,58,0.00,,SKC,0.00,0.00,VWS V14.00,2013-01-24 10:30:00,
2013-01-24 04:35:00,-33.6,-43.1,30.75,WNW,296,3.0,4.0,58,0.00,,SKC,0.00,0.00,VWS V14.00,2013-01-24 10:35:00,
2013-01-24 04:40:00,-32.7,-41.9,30.75,WNW,296,3.0,4.0,59,0.00,,SKC,0.00,0.00,VWS V14.00,2013-01-24 10:40:00,
2013-01-24 04:45:00,-32.3,-41.5,30.75,WNW,296,3.0,4.0,59,0.00,,SKC,0.00,0.00,VWS V14.00,2013-01-24 10:45:00,
2013-01-24 04:50:00,-31.0,-40.0,30.74,WNW,296,2.0,4.0,60,0.00,,SKC,0.00,0.00,VWS V14.00,2013-01-24 10:50:00,
2013-01-24 04:55:00,-30.1,-39.2,30.74,WNW,296,2.0,3.0,60,0.00,,SKC,0.00,0.00,VWS V14.00,2013-01-24 10:55:00,
2013-01-24 05:00:00,-30.1,-39.2,30.74,WNW,296,3.0,4.0,60,0.00,,SKC,0.00,0.00,VWS V14.00,2013-01-24 11:00:00,
2013-01-24 05:05:00,-30.1,-39.2,30.73,WNW,296,2.0,3.0,60,0.00,,SKC,0.00,0.00,VWS V14.00,2013-01-24 11:05:00,
2013-01-24 05:10:00,-30.1,-39.2,30.73,WNW,296,3.0,3.0,60,0.00,,SKC,0.00,0.00,VWS V14.00,2013-01-24 11:10:00,
2013-01-24 05:15:00,-29.7,-38.8,30.73,WNW,296,3.0,4.0,60,0.00,,SKC,0.00,0.00,VWS V14.00,2013-01-24 11:15:00,
2013-01-24 05:20:00,-29.7,-38.8,30.74,WNW,296,3.0,4.0,60,0.00,,SKC,0.00,0.00,VWS V14.00,2013-01-24 11:20:00,
2013-01-24 05:25:00,-29.7,-38.8,30.74,WNW,295,4.0,4.0,60,0.00,,SKC,0.00,0.00,VWS V14.00,2013-01-24 11:25:00,
2013-01-24 05:30:00,-29.0,-38.1,30.74,WSW,244,3.0,5.0,60,0.00,,SKC,0.00,0.00,VWS V14.00,2013-01-24 11:30:00,
2013-01-24 05:35:00,-28.4,-37.3,30.73,SW,236,3.0,4.0,61,0.00,,SKC,0.00,0.00,VWS V14.00,2013-01-24 11:35:00,
2013-01-24 05:40:00,-28.0,-36.9,30.73,SW,235,1.0,4.0,61,0.00,,SKC,0.00,0.00,VWS V14.00,2013-01-24 11:40:00,
2013-01-24 05:45:00,-27.7,-36.6,30.73,SW,230,1.0,4.0,61,0.00,,SKC,0.00,0.00,VWS V14.00,2013-01-24 11:45:00,
2013-01-24 05:50:00,-27.7,-36.6,30.73,SW,229,2.0,4.0,61,0.00,,SKC,0.00,0.00,VWS V14.00,2013-01-24 11:50:00,
2013-01-24 05:55:00,-27.7,-36.6,30.73,SW,228,3.0,3.0,61,0.00,,SKC,0.00,0.00,VWS V14.00,2013-01-24 11:55:00,
2013-01-24 06:00:00,-27.3,-36.2,30.73,SW,227,3.0,4.0,61,0.00,,SKC,0.00,0.00,VWS V14.00,2013-01-24 12:00:00,
2013-01-24 06:05:00,-27.3,-36.2,30.72,SSW,205,3.0,5.0,61,0.00,,SKC,0.00,0.00,VWS V14.00,2013-01-24 12:05:00,
2013-01-24 06:10:00,-27.0,-35.9,30.72,South,172,3.0,5.0,61,0.00,,SKC,0.00,0.00,VWS V14.00,2013-01-24 12:10:00,
2013-01-24 06:15:00,-26.6,-35.5,30.72,SSE,168,3.0,5.0,61,0.00,,SKC,0.00,0.00,VWS V14.00,2013-01-24 12:15:00,
2013-01-24 06:20:00,-26.6,-35.5,30.72,SSE,150,2.0,5.0,61,0.00,,SKC,0.00,0.00,VWS V14.00,2013-01-24 12:20:00,
2013-01-24 06:25:00,-26.3,-35.3,30.72,SE,140,4.0,6.0,61,0.00,,SKC,0.00,0.00,VWS V14.00,2013-01-24 12:25:00,
2013-01-24 06:30:00,-26.0,-34.7,30.72,SE,138,3.0,6.0,62,0.00,,SKC,0.00,0.00,VWS V14.00,2013-01-24 12:30:00,
2013-01-24 06:35:00,-25.6,-34.3,30.71,SE,138,2.0,3.0,62,0.00,,SKC,0.00,0.00,VWS V14.00,2013-01-24 12:35:00,
2013-01-24 06:40:00,-25.6,-34.3,30.71,SE,141,4.0,6.0,62,0.00,,SKC,0.00,0.00,VWS V14.00,2013-01-24 12:40:00,
2013-01-24 06:49:00,32.0,32.0,0.00,North,0,0.0,0.0,0,0.00,,SKC,0.00,0.00,VWS V14.00,2013-01-24 12:49:00,
2013-01-24 06:54:00,-24.6,-33.1,30.71,SE,145,4.0,6.0,63,0.00,,SKC,0.00,0.00,VWS V14.00,2013-01-24 12:54:00,
2013-01-24 06:59:00,-24.2,-32.7,30.71,SE,146,4.0,6.0,63,0.00,,SKC,0.00,0.00,VWS V14.00,2013-01-24 12:59:00,
2013-01-24 07:04:00,-24.2,-32.7,30.70,SE,145,6.0,6.0,63,0.00,,OVC083,0.00,0.00,VWS V14.00,2013-01-24 13:04:00,
2013-01-24 07:09:00,-23.6,-32.1,30.70,SE,144,5.0,6.0,63,0.00,,OVC083,0.00,0.00,VWS V14.00,2013-01-24 13:09:00,
2013-01-24 07:14:00,-23.2,-31.7,30.70,SE,144,5.0,6.0,63,0.00,,OVC083,0.00,0.00,VWS V14.00,2013-01-24 13:14:00,
2013-01-24 07:19:00,-23.2,-31.7,30.69,SE,144,4.0,7.0,63,0.00,,OVC083,0.00,0.00,VWS V14.00,2013-01-24 13:19:00,
2013-01-24 07:24:00,-22.9,-31.4,30.69,SE,143,4.0,5.0,63,0.00,,OVC083,0.00,0.00,VWS V14.00,2013-01-24 13:24:00,
2013-01-24 07:29:00,-22.5,-31.1,30.69,SE,143,5.0,6.0,63,0.00,,OVC083,0.00,0.00,VWS V14.00,2013-01-24 13:29:00,
2013-01-24 07:34:00,-22.3,-30.6,30.68,SE,143,5.0,6.0,64,0.00,,OVC083,0.00,0.00,VWS V14.00,2013-01-24 13:34:00,
2013-01-24 07:39:00,-21.7,-30.0,30.68,SE,144,5.0,7.0,64,0.00,,OVC083,0.00,0.00,VWS V14.00,2013-01-24 13:39:00,
2013-01-24 07:44:00,-21.4,-29.7,30.68,SE,144,4.0,6.0,64,0.00,,OVC083,0.00,0.00,VWS V14.00,2013-01-24 13:44:00,
2013-01-24 07:49:00,-21.1,-29.4,30.67,SE,146,4.0,5.0,64,0.00,,OVC083,0.00,0.00,VWS V14.00,2013-01-24 13:49:00,
2013-01-24 07:54:00,-20.5,-28.9,30.67,SSE,153,4.0,5.0,64,0.00,,OVC083,0.00,0.00,VWS V14.00,2013-01-24 13:54:00,
2013-01-24 07:59:00,-19.9,-28.3,30.67,SSE,158,6.0,10.0,64,0.00,,OVC083,0.00,0.00,VWS V14.00,2013-01-24 13:59:00,
2013-01-24 08:04:00,-19.3,-27.7,30.67,SSE,153,7.0,10.0,64,0.00,,OVC091,0.00,0.00,VWS V14.00,2013-01-24 14:04:00,
2013-01-24 08:09:00,-19.3,-28.0,30.67,SSE,150,7.0,13.0,63,0.00,,OVC091,0.00,0.00,VWS V14.00,2013-01-24 14:09:00,
2013-01-24 08:14:00,-19.0,-27.7,30.67,SSE,159,5.0,10.0,63,0.00,,OVC091,0.00,7.00,VWS V14.00,2013-01-24 14:14:00,
2013-01-24 08:19:00,-18.7,-27.4,30.66,SSE,162,4.0,10.0,63,0.00,,OVC091,0.00,12.00,VWS V14.00,2013-01-24 14:19:00,
2013-01-24 08:24:00,-18.7,-27.7,30.66,SSE,155,7.0,10.0,62,0.00,,OVC091,0.00,11.00,VWS V14.00,2013-01-24 14:24:00,
2013-01-24 08:29:00,-18.4,-27.4,30.66,SSE,157,8.0,10.0,62,0.00,,OVC091,0.00,14.00,VWS V14.00,2013-01-24 14:29:00,
2013-01-24 08:34:00,-18.4,-27.4,30.65,SE,146,10.0,11.0,62,0.00,,OVC091,0.00,18.00,VWS V14.00,2013-01-24 14:34:00,
2013-01-24 08:39:00,-18.4,-27.7,30.65,SSE,153,10.0,12.0,61,0.00,,OVC091,0.00,23.00,VWS V14.00,2013-01-24 14:39:00,
2013-01-24 08:44:00,-18.4,-27.7,30.65,SSE,151,7.0,12.0,61,0.00,,OVC091,0.00,26.00,VWS V14.00,2013-01-24 14:44:00,
2013-01-24 08:49:00,-18.1,-27.5,30.64,SE,146,9.0,12.0,61,0.00,,OVC091,0.00,30.00,VWS V14.00,2013-01-24 14:49:00,
2013-01-24 08:54:00,-18.1,-27.5,30.64,SE,137,7.0,11.0,61,0.00,,OVC091,0.00,33.00,VWS V14.00,2013-01-24 14:54:00,
2013-01-24 08:59:00,-17.8,-27.2,30.64,SE,141,11.0,13.0,61,0.00,,OVC091,0.00,40.00,VWS V14.00,2013-01-24 14:59:00,
2013-01-24 09:04:00,-17.8,-27.2,30.62,SE,139,13.0,13.0,61,0.00,,OVC100,0.00,47.00,VWS V14.00,2013-01-24 15:04:00,
2013-01-24 09:09:00,-17.8,-27.2,30.62,SE,138,9.0,13.0,61,0.00,,OVC100,0.00,51.00,VWS V14.00,2013-01-24 15:09:00,
2013-01-24 09:14:00,-17.5,-26.9,30.62,SE,137,10.0,12.0,61,0.00,,OVC100,0.00,51.00,VWS V14.00,2013-01-24 15:14:00,
2013-01-24 09:19:00,-17.2,-26.6,30.62,SE,136,9.0,13.0,61,0.00,,OVC100,0.00,56.00,VWS V14.00,2013-01-24 15:19:00,
2013-01-24 09:24:00,-16.9,-26.3,30.62,SE,145,7.0,12.0,61,0.00,,OVC100,0.00,56.00,VWS V14.00,2013-01-24 15:24:00,
2013-01-24 09:29:00,-16.6,-25.7,30.62,SE,138,9.0,12.0,62,0.00,,OVC100,0.00,60.00,VWS V14.00,2013-01-24 15:29:00,
2013-01-24 09:34:00,-16.4,-25.8,30.61,SE,137,9.0,12.0,61,0.00,,OVC100,0.00,65.00,VWS V14.00,2013-01-24 15:34:00,
2013-01-24 09:39:00,-16.1,-25.5,30.61,SE,130,10.0,14.0,61,0.00,,OVC100,0.00,70.00,VWS V14.00,2013-01-24 15:39:00,
2013-01-24 09:44:00,-16.1,-25.5,30.61,SE,132,10.0,15.0,61,0.00,,OVC100,0.00,76.00,VWS V14.00,2013-01-24 15:44:00,
2013-01-24 09:49:00,-15.8,-25.3,30.60,SSE,148,12.0,14.0,61,0.00,,OVC100,0.00,77.00,VWS V14.00,2013-01-24 15:49:00,
2013-01-24 09:55:00,-15.8,-25.3,30.60,SE,140,7.0,13.0,61,0.00,,OVC100,0.00,83.00,VWS V14.00,2013-01-24 15:55:00,
2013-01-24 10:00:00,-15.6,-25.1,30.60,SE,139,9.0,14.0,61,0.00,,OVC100,0.00,83.00,VWS V14.00,2013-01-24 16:00:00,
2013-01-24 10:05:00,-15.3,-24.8,30.59,SE,136,7.0,13.0,61,0.00,,OVC150,0.00,83.00,VWS V14.00,2013-01-24 16:05:00,
2013-01-24 10:10:00,-15.1,-24.6,30.59,SE,138,9.0,14.0,61,0.00,,OVC150,0.00,93.00,VWS V14.00,2013-01-24 16:10:00,
2013-01-24 10:15:00,-14.8,-24.3,30.59,SE,142,11.0,14.0,61,0.00,,OVC150,0.00,107.00,VWS V14.00,2013-01-24 16:15:00,
2013-01-24 10:20:00,-14.6,-24.4,30.59,SE,138,5.0,15.0,60,0.00,,OVC150,0.00,127.00,VWS V14.00,2013-01-24 16:20:00,
2013-01-24 10:25:00,-14.3,-24.1,30.59,SE,144,6.0,12.0,60,0.00,,OVC150,0.00,134.00,VWS V14.00,2013-01-24 16:25:00,
2013-01-24 10:30:00,-14.0,-23.5,30.59,SE,132,4.0,6.0,61,0.00,,OVC150,0.00,132.00,VWS V14.00,2013-01-24 16:30:00,
2013-01-24 10:35:00,-13.8,-23.7,30.59,SE,126,10.0,12.0,60,0.00,,OVC150,0.00,130.00,VWS V14.00,2013-01-24 16:35:00,
2013-01-24 10:40:00,-13.8,-23.7,30.59,SE,133,9.0,9.0,60,0.00,,OVC150,0.00,132.00,VWS V14.00,2013-01-24 16:40:00,
2013-01-24 10:45:00,-13.5,-23.4,30.59,SE,140,5.0,10.0,60,0.00,,OVC150,0.00,146.00,VWS V14.00,2013-01-24 16:45:00,
2013-01-24 10:50:00,-13.0,-22.9,30.59,SE,139,6.0,11.0,60,0.00,,OVC150,0.00,155.00,VWS V14.00,2013-01-24 16:50:00,
2013-01-24 10:55:00,-12.8,-22.7,30.59,SE,140,9.0,12.0,60,0.00,,OVC150,0.00,158.00,VWS V14.00,2013-01-24 16:55:00,
2013-01-24 11:00:00,-12.5,-22.4,30.59,SE,133,6.0,12.0,60,0.00,,OVC150,0.00,162.00,VWS V14.00,2013-01-24 17:00:00,
2013-01-24 11:05:00,-12.2,-22.1,30.59,SE,143,11.0,14.0,60,0.00,,OVC150,0.00,169.00,VWS V14.00,2013-01-24 17:05:00,
2013-01-24 11:10:00,-12.0,-22.0,30.59,SE,127,8.0,15.0,60,0.00,,OVC150,0.00,183.00,VWS V14.00,2013-01-24 17:10:00,
2013-01-24 11:15:00,-11.7,-21.7,30.59,SE,142,13.0,16.0,60,0.00,,OVC150,0.00,185.00,VWS V14.00,2013-01-24 17:15:00,
2013-01-24 11:20:00,-11.7,-21.7,30.56,SE,140,9.0,16.0,60,0.00,,OVC150,0.00,174.00,VWS V14.00,2013-01-24 17:20:00,
2013-01-24 11:25:00,-11.5,-21.5,30.56,SE,139,10.0,16.0,60,0.00,,OVC150,0.00,167.00,VWS V14.00,2013-01-24 17:25:00,
2013-01-24 11:30:00,-11.2,-21.5,30.56,SE,144,15.0,16.0,59,0.00,,OVC150,0.00,146.00,VWS V14.00,2013-01-24 17:30:00,
2013-01-24 11:35:00,-11.0,-21.0,30.55,SE,126,12.0,16.0,60,0.00,,OVC150,0.00,135.00,VWS V14.00,2013-01-24 17:35:00,
2013-01-24 11:40:00,-11.0,-21.3,30.55,SE,146,12.0,16.0,59,0.00,,OVC150,0.00,127.00,VWS V14.00,2013-01-24 17:40:00,
2013-01-24 11:45:00,-10.7,-20.7,30.55,SE,145,13.0,16.0,60,0.00,,OVC150,0.00,125.00,VWS V14.00,2013-01-24 17:45:00,
2013-01-24 11:50:00,-10.3,-20.4,30.54,SE,140,14.0,14.0,60,0.00,,OVC150,0.00,121.00,VWS V14.00,2013-01-24 17:50:00,
2013-01-24 11:55:00,-10.0,-20.1,30.54,SE,138,10.0,12.0,60,0.00,,OVC150,0.00,120.00,VWS V14.00,2013-01-24 17:55:00,
2013-01-24 12:01:00,-9.8,-20.2,30.53,SE,138,12.0,13.0,59,0.00,,OVC150,0.00,120.00,VWS V14.00,2013-01-24 18:01:00,
2013-01-24 12:06:00,-9.6,-20.0,30.53,SSE,148,12.0,13.0,59,0.00,,OVC150,0.00,120.00,VWS V14.00,2013-01-24 18:06:00,
2013-01-24 12:11:00,-9.3,-19.4,30.53,SE,134,12.0,17.0,60,0.00,,OVC150,0.00,123.00,VWS V14.00,2013-01-24 18:11:00,
2013-01-24 12:16:00,-9.3,-19.7,30.53,SE,138,10.0,16.0,59,0.00,,OVC150,0.00,127.00,VWS V14.00,2013-01-24 18:16:00,
2013-01-24 12:21:00,-9.1,-19.5,30.53,SE,137,14.0,16.0,59,0.00,,OVC150,0.00,130.00,VWS V14.00,2013-01-24 18:21:00,
2013-01-24 12:26:00,-8.9,-19.3,30.53,SE,142,11.0,13.0,59,0.00,,OVC150,0.00,132.00,VWS V14.00,2013-01-24 18:26:00,
2013-01-24 12:31:00,-8.4,-18.9,30.51,SE,146,12.0,16.0,59,0.00,,OVC150,0.00,132.00,VWS V14.00,2013-01-24 18:31:00,
2013-01-24 12:36:00,-8.4,-19.2,30.51,SSE,148,17.0,21.0,58,0.00,,OVC150,0.00,132.00,VWS V14.00,2013-01-24 18:36:00,
2013-01-24 12:41:00,-8.2,-19.0,30.51,SSE,150,15.0,20.0,58,0.00,,OVC150,0.00,137.00,VWS V14.00,2013-01-24 18:41:00,
2013-01-24 12:46:00,-7.9,-19.1,30.49,SSE,148,19.0,19.0,57,0.00,,OVC150,0.00,141.00,VWS V14.00,2013-01-24 18:46:00,
2013-01-24 12:51:00,-7.9,-19.1,30.49,SE,136,12.0,18.0,57,0.00,,OVC150,0.00,142.00,VWS V14.00,2013-01-24 18:51:00,
2013-01-24 12:56:00,-7.9,-18.7,30.49,SE,141,13.0,18.0,58,0.00,,OVC150,0.00,139.00,VWS V14.00,2013-01-24 18:56:00,
2013-01-24 13:01:00,-7.9,-18.1,30.48,SE,146,17.0,22.0,60,0.00,,,0.00,132.00,VWS V14.00,2013-01-24 19:01:00,
2013-01-24 13:06:00,-7.9,-17.4,30.48,SE,132,14.0,19.0,62,0.00,,,0.00,135.00,VWS V14.00,2013-01-24 19:06:00,
2013-01-24 13:11:00,-7.9,-16.8,30.48,ESE,122,11.0,18.0,64,0.00,,,0.00,139.00,VWS V14.00,2013-01-24 19:11:00,
2013-01-24 13:16:00,-7.9,-16.8,30.46,SE,146,14.0,17.0,64,0.00,,,0.00,137.00,VWS V14.00,2013-01-24 19:16:00,
2013-01-24 13:21:00,-7.9,-16.5,30.46,SE,133,7.0,16.0,65,0.00,,,0.00,132.00,VWS V14.00,2013-01-24 19:21:00,
2013-01-24 13:26:00,-7.9,-16.2,30.46,SE,132,7.0,17.0,66,0.00,,,0.00,127.00,VWS V14.00,2013-01-24 19:26:00,
2013-01-24 13:31:00,-7.9,-16.2,30.43,ESE,116,13.0,16.0,66,0.00,,,0.00,120.00,VWS V14.00,2013-01-24 19:31:00,
2013-01-24 13:36:00,-7.9,-15.9,30.43,SE,134,11.0,17.0,67,0.00,,,0.00,120.00,VWS V14.00,2013-01-24 19:36:00,
2013-01-24 13:41:00,-7.7,-15.4,30.43,ESE,123,7.0,15.0,68,0.00,,,0.00,118.00,VWS V14.00,2013-01-24 19:41:00,
2013-01-24 13:46:00,-7.7,-15.4,30.41,ESE,119,10.0,16.0,68,0.00,,,0.00,116.00,VWS V14.00,2013-01-24 19:46:00,
2013-01-24 13:51:00,-7.7,-15.4,30.41,ESE,102,7.0,13.0,68,0.00,,,0.00,116.00,VWS V14.00,2013-01-24 19:51:00,
2013-01-24 13:56:00,-8.2,-15.9,30.41,ESE,107,6.0,12.0,68,0.00,,,0.00,104.00,VWS V14.00,2013-01-24 19:56:00,
2013-01-24 14:01:00,-8.4,-16.1,30.40,ESE,110,11.0,13.0,68,0.00,,,0.00,100.00,VWS V14.00,2013-01-24 20:01:00,
2013-01-24 14:06:00,-8.4,-16.1,30.40,ESE,113,12.0,15.0,68,0.00,,,0.00,98.00,VWS V14.00,2013-01-24 20:06:00,
2013-01-24 14:11:00,-8.4,-15.8,30.40,ESE,120,10.0,14.0,69,0.00,,,0.00,97.00,VWS V14.00,2013-01-24 20:11:00,
2013-01-24 14:16:00,-8.2,-15.6,30.38,ESE,115,6.0,14.0,69,0.00,,,0.00,93.00,VWS V14.00,2013-01-24 20:16:00,
2013-01-24 14:21:00,-8.2,-15.6,30.38,ESE,107,10.0,14.0,69,0.00,,,0.00,86.00,VWS V14.00,2013-01-24 20:21:00,
2013-01-24 14:26:00,-8.2,-15.6,30.38,ESE,119,6.0,14.0,69,0.00,,,0.00,84.00,VWS V14.00,2013-01-24 20:26:00,
2013-01-24 14:31:00,-7.9,-15.3,30.37,ESE,117,5.0,16.0,69,0.00,,,0.00,84.00,VWS V14.00,2013-01-24 20:31:00,
2013-01-24 14:36:00,-7.9,-15.3,30.37,ESE,117,7.0,16.0,69,0.00,,,0.00,86.00,VWS V14.00,2013-01-24 20:36:00,
2013-01-24 14:41:00,-7.9,-15.1,30.37,ESE,120,5.0,12.0,70,0.00,,,0.00,90.00,VWS V14.00,2013-01-24 20:41:00,
2013-01-24 14:46:00,-7.7,-14.9,30.36,SE,124,6.0,14.0,70,0.00,,,0.00,91.00,VWS V14.00,2013-01-24 20:46:00,
2013-01-24 14:51:00,-7.5,-14.7,30.36,SE,131,12.0,15.0,70,0.00,,,0.00,84.00,VWS V14.00,2013-01-24 20:51:00,
2013-01-24 14:56:00,-7.5,-14.7,30.36,ESE,121,9.0,16.0,70,0.00,,,0.00,79.00,VWS V14.00,2013-01-24 20:56:00,
2013-01-24 15:01:00,-7.2,-14.4,30.35,ESE,121,7.0,15.0,70,0.00,,,0.00,79.00,VWS V14.00,2013-01-24 21:01:00,
2013-01-24 15:06:00,-7.2,-14.4,30.35,ESE,119,6.0,13.0,70,0.00,,,0.00,74.00,VWS V14.00,2013-01-24 21:06:00,
2013-01-24 15:11:00,-7.0,-14.2,30.35,ESE,123,7.0,14.0,70,0.00,,,0.00,74.00,VWS V14.00,2013-01-24 21:11:00,
2013-01-24 15:16:00,-7.0,-13.9,30.33,SE,134,9.0,16.0,71,0.00,,,0.00,72.00,VWS V14.00,2013-01-24 21:16:00,
2013-01-24 15:21:00,-6.8,-14.0,30.33,SSE,149,15.0,18.0,70,0.00,,,0.00,69.00,VWS V14.00,2013-01-24 21:21:00,
2013-01-24 15:26:00,-6.8,-14.0,30.33,ESE,117,9.0,15.0,70,0.00,,,0.00,67.00,VWS V14.00,2013-01-24 21:26:00,
2013-01-24 15:31:00,-6.8,-14.3,30.31,SE,130,12.0,16.0,69,0.00,,,0.00,67.00,VWS V14.00,2013-01-24 21:31:00,
2013-01-24 15:36:00,-6.5,-14.0,30.31,SE,128,10.0,14.0,69,0.00,,,0.00,49.00,VWS V14.00,2013-01-24 21:36:00,
2013-01-24 15:41:00,-6.5,-14.0,30.31,ESE,123,7.0,17.0,69,0.00,,,0.00,47.00,VWS V14.00,2013-01-24 21:41:00,
2013-01-24 15:46:00,-6.3,-13.8,30.29,ESE,119,9.0,15.0,69,0.00,,,0.00,47.00,VWS V14.00,2013-01-24 21:46:00,
2013-01-24 15:51:00,-6.3,-13.8,30.29,ESE,120,11.0,15.0,69,0.00,,,0.00,51.00,VWS V14.00,2013-01-24 21:51:00,
2013-01-24 15:56:00,-6.1,-13.9,30.29,SE,134,12.0,15.0,68,0.00,,,0.00,39.00,VWS V14.00,2013-01-24 21:56:00,
2013-01-24 16:01:00,-5.9,-13.7,30.30,ESE,123,11.0,15.0,68,0.00,,,0.00,32.00,VWS V14.00,2013-01-24 22:01:00,
2013-01-24 16:06:00,-5.9,-13.7,30.30,SE,131,7.0,17.0,68,0.00,,,0.00,25.00,VWS V14.00,2013-01-24 22:06:00,
2013-01-24 16:11:00,-5.6,-13.4,30.30,SE,137,14.0,18.0,68,0.00,,,0.00,28.00,VWS V14.00,2013-01-24 22:11:00,
2013-01-24 16:16:00,-5.6,-13.4,30.28,ESE,123,9.0,17.0,68,0.00,,,0.00,26.00,VWS V14.00,2013-01-24 22:16:00,
2013-01-24 16:21:00,-5.4,-13.5,30.28,SE,138,13.0,19.0,67,0.00,,,0.00,25.00,VWS V14.00,2013-01-24 22:21:00,
2013-01-24 16:26:00,-5.4,-13.5,30.28,ESE,111,11.0,17.0,67,0.00,,,0.00,19.00,VWS V14.00,2013-01-24 22:26:00,
2013-01-24 16:31:00,-5.4,-13.2,30.26,ESE,115,10.0,14.0,68,0.00,,,0.00,19.00,VWS V14.00,2013-01-24 22:31:00,
2013-01-24 16:37:00,-5.4,-12.9,30.26,ESE,118,10.0,15.0,69,0.00,,,0.00,16.00,VWS V14.00,2013-01-24 22:37:00,
2013-01-24 16:42:00,-5.4,-12.6,30.26,SE,126,11.0,16.0,70,0.00,,,0.00,14.00,VWS V14.00,2013-01-24 22:42:00,
2013-01-24 16:47:00,-5.2,-12.5,30.25,ESE,121,9.0,16.0,70,0.00,,,0.00,12.00,VWS V14.00,2013-01-24 22:47:00,
2013-01-24 16:51:00,-5.2,-12.2,30.25,ESE,113,8.0,15.0,71,0.00,,,0.00,9.00,VWS V14.00,2013-01-24 22:51:00,
2013-01-24 16:56:00,-5.2,-12.2,30.25,SE,131,9.0,13.0,71,0.00,,,0.00,7.00,VWS V14.00,2013-01-24 22:56:00,
2013-01-24 17:01:00,-5.0,-12.0,30.25,ESE,122,5.0,15.0,71,0.00,,,0.00,9.00,VWS V14.00,2013-01-24 23:01:00,
2013-01-24 17:07:00,-5.0,-11.7,30.25,ESE,115,11.0,16.0,72,0.00,,,0.00,11.00,VWS V14.00,2013-01-24 23:07:00,
2013-01-24 17:12:00,-5.0,-11.7,30.25,SE,133,10.0,15.0,72,0.00,,,0.00,9.00,VWS V14.00,2013-01-24 23:12:00,
2013-01-24 18:20:00,-4.6,-11.0,30.20,SE,135,9.0,16.0,73,0.00,,,0.00,0.00,VWS V14.00,2013-01-25 00:20:00,
2013-01-24 18:31:00,-4.6,-11.0,30.20,SE,135,9.0,16.0,73,0.00,,,0.00,0.00,VWS V14.00,2013-01-25 00:31:00,
2013-01-24 18:36:00,-4.8,-11.2,30.20,SE,140,10.0,12.0,73,0.00,,,0.00,0.00,VWS V14.00,2013-01-25 00:36:00,
2013-01-24 18:41:00,-4.8,-11.2,30.20,SE,140,7.0,13.0,73,0.00,,,0.00,0.00,VWS V14.00,2013-01-25 00:41:00,
2013-01-24 18:46:00,-4.6,-11.0,30.20,SE,134,5.0,13.0,73,0.00,,,0.00,0.00,VWS V14.00,2013-01-25 00:46:00,
2013-01-24 18:51:00,-4.6,-11.0,30.20,SE,140,9.0,13.0,73,0.00,,,0.00,0.00,VWS V14.00,2013-01-25 00:51:00,
2013-01-24 18:56:00,-4.6,-11.0,30.20,SE,133,7.0,12.0,73,0.00,,,0.00,0.00,VWS V14.00,2013-01-25 00:56:00,
2013-01-24 19:01:00,-4.6,-11.0,30.20,SE,144,7.0,13.0,73,0.00,,,0.00,0.00,VWS V14.00,2013-01-25 01:01:00,
2013-01-24 19:06:00,-4.6,-11.0,30.20,SE,134,6.0,16.0,73,0.00,,,0.00,0.00,VWS V14.00,2013-01-25 01:06:00,
2013-01-24 19:11:00,-4.6,-11.0,30.20,SE,132,6.0,15.0,73,0.00,,,0.00,0.00,VWS V14.00,2013-01-25 01:11:00,
2013-01-24 19:16:00,-4.6,-11.0,30.19,SE,134,9.0,12.0,73,0.00,,,0.00,0.00,VWS V14.00,2013-01-25 01:16:00,
2013-01-24 19:21:00,-4.6,-11.0,30.19,ESE,123,5.0,10.0,73,0.00,,,0.00,0.00,VWS V14.00,2013-01-25 01:21:00,
2013-01-24 19:26:00,-4.6,-11.0,30.19,SE,131,10.0,11.0,73,0.00,,,0.00,0.00,VWS V14.00,2013-01-25 01:26:00,
2013-01-24 19:31:00,-4.6,-11.0,30.18,SE,128,9.0,11.0,73,0.00,,,0.00,0.00,VWS V14.00,2013-01-25 01:31:00,
2013-01-24 19:36:00,-4.6,-11.0,30.18,SE,128,5.0,9.0,73,0.00,,,0.00,0.00,VWS V14.00,2013-01-25 01:36:00,
2013-01-24 19:41:00,-4.3,-10.7,30.18,ESE,123,10.0,10.0,73,0.00,,,0.00,0.00,VWS V14.00,2013-01-25 01:41:00,
2013-01-24 19:46:00,-4.3,-10.7,30.16,ESE,123,5.0,9.0,73,0.00,,,0.00,0.00,VWS V14.00,2013-01-25 01:46:00,
2013-01-24 19:51:00,-4.3,-10.7,30.16,SE,126,9.0,10.0,73,0.00,,,0.00,0.00,VWS V14.00,2013-01-25 01:51:00,
2013-01-24 19:56:00,-4.3,-10.7,30.16,ESE,117,7.0,11.0,73,0.00,,,0.00,0.00,VWS V14.00,2013-01-25 01:56:00,
2013-01-24 20:01:00,-4.3,-10.7,30.15,ESE,116,6.0,14.0,73,0.00,,,0.00,0.00,VWS V14.00,2013-01-25 02:01:00,
2013-01-24 20:06:00,-4.3,-10.5,30.15,ESE,119,6.0,14.0,74,0.00,,,0.00,0.00,VWS V14.00,2013-01-25 02:06:00,
2013-01-24 20:11:00,-4.3,-10.5,30.15,ESE,117,6.0,12.0,74,0.00,,,0.00,0.00,VWS V14.00,2013-01-25 02:11:00,
2013-01-24 20:16:00,-4.1,-10.3,30.13,SE,124,5.0,13.0,74,0.00,,,0.00,0.00,VWS V14.00,2013-01-25 02:16:00,
2013-01-24 20:21:00,-3.9,-10.1,30.13,ESE,114,7.0,11.0,74,0.00,,,0.00,0.00,VWS V14.00,2013-01-25 02:21:00,
2013-01-24 20:26:00,-3.9,-10.1,30.13,ESE,123,10.0,14.0,74,0.00,,,0.00,0.00,VWS V14.00,2013-01-25 02:26:00,
2013-01-24 20:31:00,-3.7,-9.9,30.13,SE,125,6.0,11.0,74,0.00,,,0.00,0.00,VWS V14.00,2013-01-25 02:31:00,
2013-01-24 20:36:00,-3.7,-9.9,30.13,SE,128,4.0,13.0,74,0.00,,,0.00,0.00,VWS V14.00,2013-01-25 02:36:00,
2013-01-24 20:41:00,-3.5,-9.7,30.13,SE,126,10.0,13.0,74,0.00,,,0.00,0.00,VWS V14.00,2013-01-25 02:41:00,
2013-01-24 20:46:00,-3.5,-9.7,30.11,SE,128,7.0,12.0,74,0.02,,,0.02,0.00,VWS V14.00,2013-01-25 02:46:00,
2013-01-24 20:51:00,-3.3,-9.5,30.11,ESE,117,9.0,12.0,74,0.02,,,0.02,0.00,VWS V14.00,2013-01-25 02:51:00,
2013-01-24 20:56:00,-3.3,-9.5,30.11,SE,126,7.0,9.0,74,0.02,,,0.02,0.00,VWS V14.00,2013-01-25 02:56:00,
2013-01-24 21:01:00,-3.1,-9.3,30.10,SE,130,13.0,13.0,74,0.11,,,0.11,0.00,VWS V14.00,2013-01-25 03:01:00,
2013-01-24 21:06:00,-3.1,-9.3,30.10,ESE,118,6.0,10.0,74,0.20,,,0.20,0.00,VWS V14.00,2013-01-25 03:06:00,
2013-01-24 21:11:00,-3.1,-9.3,30.10,SE,130,5.0,9.0,74,0.20,,,0.20,0.00,VWS V14.00,2013-01-25 03:11:00,
2013-01-24 21:16:00,-2.8,-9.0,30.09,ESE,119,6.0,10.0,74,0.20,,,0.20,0.00,VWS V14.00,2013-01-25 03:16:00,
2013-01-24 21:21:00,-2.8,-9.0,30.09,ESE,121,3.0,9.0,74,0.20,,,0.20,0.00,VWS V14.00,2013-01-25 03:21:00,
2013-01-24 21:26:00,-2.8,-9.0,30.09,ESE,117,4.0,9.0,74,0.20,,,0.20,0.00,VWS V14.00,2013-01-25 03:26:00,
2013-01-24 21:31:00,-2.6,-8.8,30.08,ESE,111,7.0,11.0,74,0.20,,,0.20,0.00,VWS V14.00,2013-01-25 03:31:00,
2013-01-24 21:36:00,-2.6,-8.8,30.08,ESE,117,5.0,10.0,74,0.20,,,0.20,0.00,VWS V14.00,2013-01-25 03:36:00,
2013-01-24 21:41:00,-2.6,-8.6,30.08,ESE,110,6.0,11.0,75,0.20,,,0.20,0.00,VWS V14.00,2013-01-25 03:41:00,
2013-01-24 21:46:00,-2.4,-8.4,30.08,ESE,115,3.0,10.0,75,0.20,,,0.20,0.00,VWS V14.00,2013-01-25 03:46:00,
2013-01-24 21:51:00,-2.4,-8.4,30.08,ESE,115,10.0,10.0,75,0.18,,,0.20,0.00,VWS V14.00,2013-01-25 03:51:00,
2013-01-24 21:56:00,-2.4,-8.4,30.08,ESE,118,7.0,10.0,75,0.18,,,0.20,0.00,VWS V14.00,2013-01-25 03:56:00,
2013-01-24 22:01:00,-2.2,-8.2,30.08,ESE,113,4.0,11.0,75,0.18,,,0.20,0.00,VWS V14.00,2013-01-25 04:01:00,
2013-01-24 22:06:00,-2.2,-8.2,30.08,ESE,111,7.0,10.0,75,0.02,,,0.20,0.00,VWS V14.00,2013-01-25 04:06:00,
2013-01-24 22:11:00,-2.2,-8.2,30.08,ESE,115,5.0,8.0,75,0.00,,,0.20,0.00,VWS V14.00,2013-01-25 04:11:00,
2013-01-24 22:16:00,-2.2,-8.2,30.06,ESE,109,10.0,11.0,75,0.00,,,0.20,0.00,VWS V14.00,2013-01-25 04:16:00,
2013-01-24 22:21:00,-2.2,-8.2,30.06,ESE,113,6.0,11.0,75,0.00,,,0.20,0.00,VWS V14.00,2013-01-25 04:21:00,
2013-01-24 22:26:00,-2.0,-8.0,30.06,ESE,116,9.0,12.0,75,0.00,,,0.20,0.00,VWS V14.00,2013-01-25 04:26:00,
2013-01-24 22:31:00,-2.0,-8.0,30.05,ESE,117,6.0,10.0,75,0.00,,,0.20,0.00,VWS V14.00,2013-01-25 04:31:00,
2013-01-24 22:37:00,-1.8,-7.8,30.05,ESE,114,5.0,7.0,75,0.00,,,0.20,0.00,VWS V14.00,2013-01-25 04:37:00,
2013-01-24 22:42:00,-1.8,-7.8,30.05,ESE,113,6.0,10.0,75,0.00,,,0.20,0.00,VWS V14.00,2013-01-25 04:42:00,
2013-01-24 22:47:00,-1.8,-7.8,30.04,ESE,114,4.0,7.0,75,0.00,,,0.20,0.00,VWS V14.00,2013-01-25 04:47:00,
2013-01-24 22:52:00,-1.8,-7.8,30.04,ESE,115,6.0,8.0,75,0.00,,,0.20,0.00,VWS V14.00,2013-01-25 04:52:00,
2013-01-24 22:57:00,-1.6,-7.6,30.04,SE,126,6.0,11.0,75,0.00,,,0.20,0.00,VWS V14.00,2013-01-25 04:57:00,
2013-01-24 23:00:00,-1.6,-7.6,30.04,ESE,110,7.0,11.0,75,0.00,,,0.20,0.00,VWS V14.00,2013-01-25 05:00:00,
2013-01-24 23:01:00,-1.6,-7.3,30.04,ESE,117,6.0,11.0,76,0.00,,,0.20,0.00,VWS V14.00,2013-01-25 05:01:00,
2013-01-24 23:03:00,-1.6,-7.3,30.04,ESE,113,7.0,11.0,76,0.00,,,0.20,0.00,VWS V14.00,2013-01-25 05:03:00,
2013-01-24 23:08:00,-1.6,-7.3,30.04,ESE,108,9.0,10.0,76,0.00,,,0.20,0.00,VWS V14.00,2013-01-25 05:08:00,
2013-01-24 23:13:00,-1.4,-7.1,30.04,ESE,107,4.0,7.0,76,0.00,,,0.20,0.00,VWS V14.00,2013-01-25 05:13:00,
2013-01-24 23:18:00,-1.4,-7.1,30.03,ESE,108,4.0,9.0,76,0.00,,,0.20,0.00,VWS V14.00,2013-01-25 05:18:00,
2013-01-24 23:23:00,-1.2,-6.9,30.03,ESE,108,6.0,10.0,76,0.00,,,0.20,0.00,VWS V14.00,2013-01-25 05:23:00,
2013-01-24 23:28:00,-1.2,-6.9,30.03,ESE,111,4.0,10.0,76,0.00,,,0.20,0.00,VWS V14.00,2013-01-25 05:28:00,
2013-01-24 23:33:00,-1.0,-6.7,30.02,ESE,107,6.0,9.0,76,0.00,,,0.20,0.00,VWS V14.00,2013-01-25 05:33:00,
2013-01-24 23:38:00,-1.0,-6.7,30.02,ESE,107,5.0,10.0,76,0.00,,,0.20,0.00,VWS V14.00,2013-01-25 05:38:00,
2013-01-24 23:43:00,-1.0,-6.7,30.02,East,96,4.0,7.0,76,0.00,,,0.20,0.00,VWS V14.00,2013-01-25 05:43:00,
2013-01-24 23:48:00,-1.0,-6.7,30.02,East,97,7.0,8.0,76,0.00,,,0.20,0.00,VWS V14.00,2013-01-25 05:48:00,
2013-01-24 23:53:00,-1.0,-6.7,30.02,East,98,6.0,7.0,76,0.00,,,0.20,0.00,VWS V14.00,2013-01-25 05:53:00,
2013-01-24 23:58:00,-1.0,-6.7,30.02,East,101,6.0,9.0,76,0.00,,,0.20,0.00,VWS V14.00,2013-01-25 05:58:00,